Terminal Aerodrome Forecast
Issued by NWS Goodland, KS

Current Version | Previous Version | Text Only | Print | Product List | Glossary On
Versions: 1 2 3 4 5 6 7 8 9 10 11 12 13 14
000
FTUS43 KGLD 170900 AAA
TAFGLD
TAF AMD
KGLD 170947Z 1710/1806 08006KT P6SM BKN007
     FM171500 16011KT P6SM SCT015 BKN035
     FM171800 17012G18KT P6SM BKN060
     FM172100 17017G26KT P6SM BKN080=

USA.gov is the U.S. government's official web portal to all federal, state and local government web resources and services.